sensor_id;sensor_type;location;lat;lon;timestamp;temperature;humidity
7496;DHT22;3789;47.064;15.482;2022-08-11T00:01:10;18.50;91.90
7496;DHT22;3789;47.064;15.482;2022-08-11T00:03:59;18.50;92.00
7496;DHT22;3789;47.064;15.482;2022-08-11T00:06:36;18.60;92.20
7496;DHT22;3789;47.064;15.482;2022-08-11T00:09:16;18.60;91.70
7496;DHT22;3789;47.064;15.482;2022-08-11T00:11:53;18.60;91.60
7496;DHT22;3789;47.064;15.482;2022-08-11T00:14:34;18.60;91.70
7496;DHT22;3789;47.064;15.482;2022-08-11T00:17:12;18.60;91.50
7496;DHT22;3789;47.064;15.482;2022-08-11T00:19:47;18.50;91.60
7496;DHT22;3789;47.064;15.482;2022-08-11T00:22:38;18.50;91.60
7496;DHT22;3789;47.064;15.482;2022-08-11T00:25:19;18.50;91.70
7496;DHT22;3789;47.064;15.482;2022-08-11T00:27:47;18.50;91.80
7496;DHT22;3789;47.064;15.482;2022-08-11T00:30:17;18.40;91.90
7496;DHT22;3789;47.064;15.482;2022-08-11T00:32:57;18.40;92.00
7496;DHT22;3789;47.064;15.482;2022-08-11T00:35:31;18.30;92.40
7496;DHT22;3789;47.064;15.482;2022-08-11T00:38:23;18.30;92.60
7496;DHT22;3789;47.064;15.482;2022-08-11T00:53:24;17.30;94.30
7496;DHT22;3789;47.064;15.482;2022-08-11T00:59:41;17.20;94.50
7496;DHT22;3789;47.064;15.482;2022-08-11T01:09:06;16.70;95.90
7496;DHT22;3789;47.064;15.482;2022-08-11T01:21:45;16.50;96.40
7496;DHT22;3789;47.064;15.482;2022-08-11T01:44:55;16.30;98.00
7496;DHT22;3789;47.064;15.482;2022-08-11T01:50:50;16.20;97.90
7496;DHT22;3789;47.064;15.482;2022-08-11T01:56:31;16.30;98.00
7496;DHT22;3789;47.064;15.482;2022-08-11T01:59:21;16.30;98.10
7496;DHT22;3789;47.064;15.482;2022-08-11T02:04:58;16.30;98.20
7496;DHT22;3789;47.064;15.482;2022-08-11T02:07:32;16.30;98.20
7496;DHT22;3789;47.064;15.482;2022-08-11T02:10:19;16.30;98.20
7496;DHT22;3789;47.064;15.482;2022-08-11T02:16:11;16.10;98.90
7496;DHT22;3789;47.064;15.482;2022-08-11T02:18:45;16.10;98.90
7496;DHT22;3789;47.064;15.482;2022-08-11T02:21:51;16.20;99.00
7496;DHT22;3789;47.064;15.482;2022-08-11T02:24:47;16.10;98.90
7496;DHT22;3789;47.064;15.482;2022-08-11T02:27:22;16.00;99.10
7496;DHT22;3789;47.064;15.482;2022-08-11T02:30:24;16.10;99.70
7496;DHT22;3789;47.064;15.482;2022-08-11T02:36:19;16.00;99.50
7496;DHT22;3789;47.064;15.482;2022-08-11T02:39:07;15.90;99.80
7496;DHT22;3789;47.064;15.482;2022-08-11T02:43:13;16.00;99.80
7496;DHT22;3789;47.064;15.482;2022-08-11T02:50:22;16.30;99.60
7496;DHT22;3789;47.064;15.482;2022-08-11T02:53:01;16.20;99.60
7496;DHT22;3789;47.064;15.482;2022-08-11T02:58:58;16.20;99.90
7496;DHT22;3789;47.064;15.482;2022-08-11T03:02:03;16.20;99.70
7496;DHT22;3789;47.064;15.482;2022-08-11T03:04:57;16.10;99.80
7496;DHT22;3789;47.064;15.482;2022-08-11T03:14:13;16.00;99.90
7496;DHT22;3789;47.064;15.482;2022-08-11T03:26:02;15.80;99.90
7496;DHT22;3789;47.064;15.482;2022-08-11T03:31:26;15.80;99.90
7496;DHT22;3789;47.064;15.482;2022-08-11T03:34:05;15.80;99.90
7496;DHT22;3789;47.064;15.482;2022-08-11T03:39:54;15.40;99.90
7496;DHT22;3789;47.064;15.482;2022-08-11T03:42:40;15.30;99.90
7496;DHT22;3789;47.064;15.482;2022-08-11T03:53:30;14.70;99.90
7496;DHT22;3789;47.064;15.482;2022-08-11T04:10:11;15.10;99.90
7496;DHT22;3789;47.064;15.482;2022-08-11T04:21:50;15.10;99.90
7496;DHT22;3789;47.064;15.482;2022-08-11T04:31:09;15.90;99.90
7496;DHT22;3789;47.064;15.482;2022-08-11T04:37:32;16.90;99.90
7496;DHT22;3789;47.064;15.482;2022-08-11T04:58:00;17.70;99.90
7496;DHT22;3789;47.064;15.482;2022-08-11T05:16:28;20.30;96.70
7496;DHT22;3789;47.064;15.482;2022-08-11T05:19:18;20.70;96.10
7496;DHT22;3789;47.064;15.482;2022-08-11T05:22:07;21.00;95.60
7496;DHT22;3789;47.064;15.482;2022-08-11T05:25:09;20.40;94.30
7496;DHT22;3789;47.064;15.482;2022-08-11T05:31:31;18.90;96.60
7496;DHT22;3789;47.064;15.482;2022-08-11T05:34:43;18.90;97.20
7496;DHT22;3789;47.064;15.482;2022-08-11T05:42:49;19.70;97.00
7496;DHT22;3789;47.064;15.482;2022-08-11T05:45:36;20.40;95.90
7496;DHT22;3789;47.064;15.482;2022-08-11T05:48:33;20.80;94.30
7496;DHT22;3789;47.064;15.482;2022-08-11T05:51:20;20.80;95.00
7496;DHT22;3789;47.064;15.482;2022-08-11T05:54:22;21.10;94.00
7496;DHT22;3789;47.064;15.482;2022-08-11T05:57:23;21.60;94.40
7496;DHT22;3789;47.064;15.482;2022-08-11T06:00:13;22.00;94.00
7496;DHT22;3789;47.064;15.482;2022-08-11T06:02:50;22.20;93.80
7496;DHT22;3789;47.064;15.482;2022-08-11T06:05:17;22.50;93.90
7496;DHT22;3789;47.064;15.482;2022-08-11T06:07:47;23.00;93.50
7496;DHT22;3789;47.064;15.482;2022-08-11T06:10:34;23.40;92.90
7496;DHT22;3789;47.064;15.482;2022-08-11T06:13:04;23.40;91.90
7496;DHT22;3789;47.064;15.482;2022-08-11T06:15:33;23.20;91.20
7496;DHT22;3789;47.064;15.482;2022-08-11T06:18:11;22.70;92.80
7496;DHT22;3789;47.064;15.482;2022-08-11T06:23:17;23.50;92.70
7496;DHT22;3789;47.064;15.482;2022-08-11T06:25:51;23.80;92.60
7496;DHT22;3789;47.064;15.482;2022-08-11T06:28:34;24.00;92.10
7496;DHT22;3789;47.064;15.482;2022-08-11T06:31:20;24.40;91.10
7496;DHT22;3789;47.064;15.482;2022-08-11T06:42:06;25.20;90.40
7496;DHT22;3789;47.064;15.482;2022-08-11T06:47:44;25.50;91.20
7496;DHT22;3789;47.064;15.482;2022-08-11T06:50:18;25.60;90.00
7496;DHT22;3789;47.064;15.482;2022-08-11T06:53:06;25.50;89.00
7496;DHT22;3789;47.064;15.482;2022-08-11T06:55:40;25.60;90.20
7496;DHT22;3789;47.064;15.482;2022-08-11T06:58:36;25.80;88.30
7496;DHT22;3789;47.064;15.482;2022-08-11T07:01:33;26.00;88.70
7496;DHT22;3789;47.064;15.482;2022-08-11T07:04:06;26.00;86.10
7496;DHT22;3789;47.064;15.482;2022-08-11T07:06:38;25.60;82.20
7496;DHT22;3789;47.064;15.482;2022-08-11T07:10:17;25.00;82.30
7496;DHT22;3789;47.064;15.482;2022-08-11T07:13:53;24.60;84.70
7496;DHT22;3789;47.064;15.482;2022-08-11T07:17:07;24.00;83.30
7496;DHT22;3789;47.064;15.482;2022-08-11T07:19:40;23.90;85.30
7496;DHT22;3789;47.064;15.482;2022-08-11T07:22:30;23.70;84.50
7496;DHT22;3789;47.064;15.482;2022-08-11T07:25:17;23.90;87.80
7496;DHT22;3789;47.064;15.482;2022-08-11T07:28:27;23.90;83.30
7496;DHT22;3789;47.064;15.482;2022-08-11T07:31:18;24.00;84.10
7496;DHT22;3789;47.064;15.482;2022-08-11T07:33:49;24.50;85.60
7496;DHT22;3789;47.064;15.482;2022-08-11T07:36:41;24.70;82.80
7496;DHT22;3789;47.064;15.482;2022-08-11T07:39:21;24.60;83.00
7496;DHT22;3789;47.064;15.482;2022-08-11T07:41:52;24.70;85.30
7496;DHT22;3789;47.064;15.482;2022-08-11T07:44:20;25.20;83.00
7496;DHT22;3789;47.064;15.482;2022-08-11T07:46:58;25.70;81.90
7496;DHT22;3789;47.064;15.482;2022-08-11T07:49:48;26.20;81.90
7496;DHT22;3789;47.064;15.482;2022-08-11T07:52:36;26.70;79.90
7496;DHT22;3789;47.064;15.482;2022-08-11T07:55:14;26.80;78.90
7496;DHT22;3789;47.064;15.482;2022-08-11T07:57:46;27.10;79.90
7496;DHT22;3789;47.064;15.482;2022-08-11T08:00:51;27.10;79.60
7496;DHT22;3789;47.064;15.482;2022-08-11T08:03:48;27.60;77.90
7496;DHT22;3789;47.064;15.482;2022-08-11T08:06:37;27.90;79.80
7496;DHT22;3789;47.064;15.482;2022-08-11T08:09:23;28.00;77.70
7496;DHT22;3789;47.064;15.482;2022-08-11T08:12:09;28.20;78.60
7496;DHT22;3789;47.064;15.482;2022-08-11T08:14:57;28.20;77.10
7496;DHT22;3789;47.064;15.482;2022-08-11T08:17:43;27.50;77.20
7496;DHT22;3789;47.064;15.482;2022-08-11T08:20:48;27.30;76.90
7496;DHT22;3789;47.064;15.482;2022-08-11T08:23:18;26.70;77.40
7496;DHT22;3789;47.064;15.482;2022-08-11T08:26:02;26.20;78.60
7496;DHT22;3789;47.064;15.482;2022-08-11T08:28:31;25.90;78.30
7496;DHT22;3789;47.064;15.482;2022-08-11T08:30:59;25.30;82.10
7496;DHT22;3789;47.064;15.482;2022-08-11T08:33:31;25.80;80.90
7496;DHT22;3789;47.064;15.482;2022-08-11T08:36:01;26.20;83.20
7496;DHT22;3789;47.064;15.482;2022-08-11T08:38:49;26.90;81.70
7496;DHT22;3789;47.064;15.482;2022-08-11T08:41:22;27.60;78.60
7496;DHT22;3789;47.064;15.482;2022-08-11T08:43:54;27.80;75.40
7496;DHT22;3789;47.064;15.482;2022-08-11T08:46:39;28.00;80.70
7496;DHT22;3789;47.064;15.482;2022-08-11T08:49:09;28.10;78.80
7496;DHT22;3789;47.064;15.482;2022-08-11T08:51:39;28.20;78.00
7496;DHT22;3789;47.064;15.482;2022-08-11T08:54:36;28.50;76.20
7496;DHT22;3789;47.064;15.482;2022-08-11T08:57:06;28.70;75.20
7496;DHT22;3789;47.064;15.482;2022-08-11T08:59:53;28.60;77.60
7496;DHT22;3789;47.064;15.482;2022-08-11T09:02:24;29.10;75.00
7496;DHT22;3789;47.064;15.482;2022-08-11T09:05:02;29.40;75.40
7496;DHT22;3789;47.064;15.482;2022-08-11T09:07:31;29.10;74.90
7496;DHT22;3789;47.064;15.482;2022-08-11T09:10:06;28.70;77.20
7496;DHT22;3789;47.064;15.482;2022-08-11T09:12:34;28.60;76.60
7496;DHT22;3789;47.064;15.482;2022-08-11T09:15:06;28.90;77.10
7496;DHT22;3789;47.064;15.482;2022-08-11T09:17:47;29.10;76.80
7496;DHT22;3789;47.064;15.482;2022-08-11T09:20:20;29.30;75.70
7496;DHT22;3789;47.064;15.482;2022-08-11T09:22:50;29.70;72.60
7496;DHT22;3789;47.064;15.482;2022-08-11T09:25:58;30.00;73.70
7496;DHT22;3789;47.064;15.482;2022-08-11T09:28:46;30.20;71.00
7496;DHT22;3789;47.064;15.482;2022-08-11T09:31:16;30.00;70.70
7496;DHT22;3789;47.064;15.482;2022-08-11T09:33:44;29.70;73.70
7496;DHT22;3789;47.064;15.482;2022-08-11T09:36:12;29.70;73.90
7496;DHT22;3789;47.064;15.482;2022-08-11T09:38:59;29.80;73.90
7496;DHT22;3789;47.064;15.482;2022-08-11T09:41:49;28.70;72.10
7496;DHT22;3789;47.064;15.482;2022-08-11T09:44:32;27.60;74.50
7496;DHT22;3789;47.064;15.482;2022-08-11T09:47:27;27.50;75.40
7496;DHT22;3789;47.064;15.482;2022-08-11T09:50:00;27.90;76.10
7496;DHT22;3789;47.064;15.482;2022-08-11T09:52:37;28.10;78.50
7496;DHT22;3789;47.064;15.482;2022-08-11T09:55:23;28.60;74.90
7496;DHT22;3789;47.064;15.482;2022-08-11T10:01:09;29.40;72.90
7496;DHT22;3789;47.064;15.482;2022-08-11T10:04:00;29.40;74.90
7496;DHT22;3789;47.064;15.482;2022-08-11T10:06:30;29.50;71.80
7496;DHT22;3789;47.064;15.482;2022-08-11T10:09:22;29.60;72.40
7496;DHT22;3789;47.064;15.482;2022-08-11T10:11:57;29.70;71.10
7496;DHT22;3789;47.064;15.482;2022-08-11T10:14:26;29.30;74.60
7496;DHT22;3789;47.064;15.482;2022-08-11T10:17:13;29.20;74.50
7496;DHT22;3789;47.064;15.482;2022-08-11T10:19:42;29.70;74.80
7496;DHT22;3789;47.064;15.482;2022-08-11T10:22:30;29.80;71.70
7496;DHT22;3789;47.064;15.482;2022-08-11T10:25:16;30.00;72.20
7496;DHT22;3789;47.064;15.482;2022-08-11T10:28:03;30.20;70.50
7496;DHT22;3789;47.064;15.482;2022-08-11T10:30:53;30.30;69.60
7496;DHT22;3789;47.064;15.482;2022-08-11T10:33:40;30.10;71.20
7496;DHT22;3789;47.064;15.482;2022-08-11T10:36:30;30.00;69.10
7496;DHT22;3789;47.064;15.482;2022-08-11T10:39:00;30.10;68.70
7496;DHT22;3789;47.064;15.482;2022-08-11T10:41:29;30.20;69.20
7496;DHT22;3789;47.064;15.482;2022-08-11T10:44:38;30.20;70.50
7496;DHT22;3789;47.064;15.482;2022-08-11T10:47:09;30.00;70.10
7496;DHT22;3789;47.064;15.482;2022-08-11T10:49:55;29.80;70.90
7496;DHT22;3789;47.064;15.482;2022-08-11T10:52:43;29.20;68.30
7496;DHT22;3789;47.064;15.482;2022-08-11T10:55:31;28.70;69.40
7496;DHT22;3789;47.064;15.482;2022-08-11T10:58:18;28.40;70.60
7496;DHT22;3789;47.064;15.482;2022-08-11T11:01:04;28.40;69.30
7496;DHT22;3789;47.064;15.482;2022-08-11T11:03:32;26.60;71.40
7496;DHT22;3789;47.064;15.482;2022-08-11T11:09:01;25.90;74.70
7496;DHT22;3789;47.064;15.482;2022-08-11T11:11:37;26.40;77.40
7496;DHT22;3789;47.064;15.482;2022-08-11T11:14:29;27.30;78.80
7496;DHT22;3789;47.064;15.482;2022-08-11T11:17:42;27.80;75.00
7496;DHT22;3789;47.064;15.482;2022-08-11T11:26:30;28.40;72.20
7496;DHT22;3789;47.064;15.482;2022-08-11T11:37:31;25.20;76.00
7496;DHT22;3789;47.064;15.482;2022-08-11T11:40:17;25.10;76.40
7496;DHT22;3789;47.064;15.482;2022-08-11T11:42:58;25.00;78.00
7496;DHT22;3789;47.064;15.482;2022-08-11T11:45:27;25.00;77.00
7496;DHT22;3789;47.064;15.482;2022-08-11T11:47:55;25.10;77.90
7496;DHT22;3789;47.064;15.482;2022-08-11T11:50:42;25.50;78.00
7496;DHT22;3789;47.064;15.482;2022-08-11T11:53:11;25.70;75.30
7496;DHT22;3789;47.064;15.482;2022-08-11T11:55:39;25.90;76.10
7496;DHT22;3789;47.064;15.482;2022-08-11T11:58:08;26.10;75.00
7496;DHT22;3789;47.064;15.482;2022-08-11T12:00:56;26.00;74.40
7496;DHT22;3789;47.064;15.482;2022-08-11T12:03:48;25.70;75.90
7496;DHT22;3789;47.064;15.482;2022-08-11T12:06:18;25.20;76.90
7496;DHT22;3789;47.064;15.482;2022-08-11T12:08:49;24.90;76.60
7496;DHT22;3789;47.064;15.482;2022-08-11T12:11:19;25.00;76.40
7496;DHT22;3789;47.064;15.482;2022-08-11T12:14:09;25.20;76.10
7496;DHT22;3789;47.064;15.482;2022-08-11T12:16:42;25.40;76.50
7496;DHT22;3789;47.064;15.482;2022-08-11T12:19:13;25.20;76.60
7496;DHT22;3789;47.064;15.482;2022-08-11T12:21:41;25.40;80.20
7496;DHT22;3789;47.064;15.482;2022-08-11T12:24:29;25.80;78.60
7496;DHT22;3789;47.064;15.482;2022-08-11T12:27:16;25.90;76.50
7496;DHT22;3789;47.064;15.482;2022-08-11T12:30:03;26.10;78.20
7496;DHT22;3789;47.064;15.482;2022-08-11T12:32:35;26.40;75.20
7496;DHT22;3789;47.064;15.482;2022-08-11T12:35:05;26.60;78.30
7496;DHT22;3789;47.064;15.482;2022-08-11T12:37:39;26.60;74.30
7496;DHT22;3789;47.064;15.482;2022-08-11T12:40:13;26.60;75.20
7496;DHT22;3789;47.064;15.482;2022-08-11T12:43:21;26.50;75.50
7496;DHT22;3789;47.064;15.482;2022-08-11T12:46:24;26.50;73.20
7496;DHT22;3789;47.064;15.482;2022-08-11T12:48:58;26.60;73.70
7496;DHT22;3789;47.064;15.482;2022-08-11T12:51:49;26.60;78.10
7496;DHT22;3789;47.064;15.482;2022-08-11T12:57:15;26.70;74.30
7496;DHT22;3789;47.064;15.482;2022-08-11T13:00:07;26.80;75.40
7496;DHT22;3789;47.064;15.482;2022-08-11T13:02:54;26.60;75.50
7496;DHT22;3789;47.064;15.482;2022-08-11T13:05:42;26.60;74.40
7496;DHT22;3789;47.064;15.482;2022-08-11T13:08:12;26.00;74.90
7496;DHT22;3789;47.064;15.482;2022-08-11T13:10:42;25.90;74.00
7496;DHT22;3789;47.064;15.482;2022-08-11T13:13:28;25.90;73.80
7496;DHT22;3789;47.064;15.482;2022-08-11T13:16:16;25.80;74.60
7496;DHT22;3789;47.064;15.482;2022-08-11T13:18:44;25.70;74.10
7496;DHT22;3789;47.064;15.482;2022-08-11T13:21:13;25.80;75.30
7496;DHT22;3789;47.064;15.482;2022-08-11T13:23:49;26.00;76.30
7496;DHT22;3789;47.064;15.482;2022-08-11T13:26:32;26.10;75.20
7496;DHT22;3789;47.064;15.482;2022-08-11T13:29:19;25.90;74.10
7496;DHT22;3789;47.064;15.482;2022-08-11T13:31:48;26.00;76.10
7496;DHT22;3789;47.064;15.482;2022-08-11T13:34:17;25.90;76.70
7496;DHT22;3789;47.064;15.482;2022-08-11T13:36:50;26.10;76.80
7496;DHT22;3789;47.064;15.482;2022-08-11T13:39:21;26.50;75.70
7496;DHT22;3789;47.064;15.482;2022-08-11T13:41:55;26.60;76.10
7496;DHT22;3789;47.064;15.482;2022-08-11T13:44:25;26.80;73.90
7496;DHT22;3789;47.064;15.482;2022-08-11T13:46:56;27.00;74.30
7496;DHT22;3789;47.064;15.482;2022-08-11T13:49:25;27.10;74.60
7496;DHT22;3789;47.064;15.482;2022-08-11T13:51:53;27.10;74.20
7496;DHT22;3789;47.064;15.482;2022-08-11T13:54:25;27.10;76.20
7496;DHT22;3789;47.064;15.482;2022-08-11T13:56:56;26.90;72.70
7496;DHT22;3789;47.064;15.482;2022-08-11T13:59:24;26.80;72.70
7496;DHT22;3789;47.064;15.482;2022-08-11T14:02:02;26.60;73.20
7496;DHT22;3789;47.064;15.482;2022-08-11T14:05:00;26.60;75.20
7496;DHT22;3789;47.064;15.482;2022-08-11T14:07:35;26.30;77.10
7496;DHT22;3789;47.064;15.482;2022-08-11T14:10:05;26.30;74.70
7496;DHT22;3789;47.064;15.482;2022-08-11T14:12:35;25.60;75.60
7496;DHT22;3789;47.064;15.482;2022-08-11T14:15:31;25.50;76.40
7496;DHT22;3789;47.064;15.482;2022-08-11T14:18:24;25.70;77.30
7496;DHT22;3789;47.064;15.482;2022-08-11T14:20:53;25.70;76.60
7496;DHT22;3789;47.064;15.482;2022-08-11T14:23:45;25.80;76.60
7496;DHT22;3789;47.064;15.482;2022-08-11T14:26:15;26.10;77.20
7496;DHT22;3789;47.064;15.482;2022-08-11T14:29:10;26.50;74.30
7496;DHT22;3789;47.064;15.482;2022-08-11T14:31:47;26.70;73.40
7496;DHT22;3789;47.064;15.482;2022-08-11T14:34:18;26.90;73.80
7496;DHT22;3789;47.064;15.482;2022-08-11T14:36:50;27.10;73.20
7496;DHT22;3789;47.064;15.482;2022-08-11T14:39:25;27.30;72.60
7496;DHT22;3789;47.064;15.482;2022-08-11T14:41:58;27.40;71.80
7496;DHT22;3789;47.064;15.482;2022-08-11T14:44:48;27.30;72.50
7496;DHT22;3789;47.064;15.482;2022-08-11T14:47:39;27.20;72.20
7496;DHT22;3789;47.064;15.482;2022-08-11T14:50:11;27.20;76.90
7496;DHT22;3789;47.064;15.482;2022-08-11T14:55:17;27.50;72.60
7496;DHT22;3789;47.064;15.482;2022-08-11T14:58:04;27.70;72.10
7496;DHT22;3789;47.064;15.482;2022-08-11T15:00:35;27.70;72.10
7496;DHT22;3789;47.064;15.482;2022-08-11T15:03:05;27.50;72.00
7496;DHT22;3789;47.064;15.482;2022-08-11T15:05:48;27.10;73.20
7496;DHT22;3789;47.064;15.482;2022-08-11T15:08:34;26.80;73.40
7496;DHT22;3789;47.064;15.482;2022-08-11T15:11:28;26.30;73.40
7496;DHT22;3789;47.064;15.482;2022-08-11T15:14:14;26.20;74.90
7496;DHT22;3789;47.064;15.482;2022-08-11T15:17:03;25.90;74.00
7496;DHT22;3789;47.064;15.482;2022-08-11T15:19:38;25.80;74.90
7496;DHT22;3789;47.064;15.482;2022-08-11T15:22:26;25.70;75.00
7496;DHT22;3789;47.064;15.482;2022-08-11T15:25:13;25.80;76.20
7496;DHT22;3789;47.064;15.482;2022-08-11T15:27:42;25.60;75.60
7496;DHT22;3789;47.064;15.482;2022-08-11T15:30:29;25.60;75.80
7496;DHT22;3789;47.064;15.482;2022-08-11T15:33:17;25.70;75.70
7496;DHT22;3789;47.064;15.482;2022-08-11T15:36:07;25.70;76.30
7496;DHT22;3789;47.064;15.482;2022-08-11T15:38:57;25.70;75.10
7496;DHT22;3789;47.064;15.482;2022-08-11T15:41:40;25.70;76.10
7496;DHT22;3789;47.064;15.482;2022-08-11T15:44:33;25.70;75.60
7496;DHT22;3789;47.064;15.482;2022-08-11T15:47:37;25.90;76.60
7496;DHT22;3789;47.064;15.482;2022-08-11T15:50:12;25.80;76.80
7496;DHT22;3789;47.064;15.482;2022-08-11T15:53:05;25.90;76.10
7496;DHT22;3789;47.064;15.482;2022-08-11T15:55:35;25.70;76.30
7496;DHT22;3789;47.064;15.482;2022-08-11T15:58:07;25.40;75.90
7496;DHT22;3789;47.064;15.482;2022-08-11T16:00:54;25.30;76.40
7496;DHT22;3789;47.064;15.482;2022-08-11T16:04:00;25.30;77.30
7496;DHT22;3789;47.064;15.482;2022-08-11T16:09:27;25.20;76.60
7496;DHT22;3789;47.064;15.482;2022-08-11T16:12:17;25.10;76.90
7496;DHT22;3789;47.064;15.482;2022-08-11T16:14:49;25.20;77.90
7496;DHT22;3789;47.064;15.482;2022-08-11T16:17:43;25.30;77.20
7496;DHT22;3789;47.064;15.482;2022-08-11T16:20:12;25.10;76.70
7496;DHT22;3789;47.064;15.482;2022-08-11T16:22:44;24.80;76.40
7496;DHT22;3789;47.064;15.482;2022-08-11T16:25:28;24.60;77.20
7496;DHT22;3789;47.064;15.482;2022-08-11T16:28:19;24.50;77.80
7496;DHT22;3789;47.064;15.482;2022-08-11T16:30:49;24.50;77.60
7496;DHT22;3789;47.064;15.482;2022-08-11T16:33:17;24.50;78.40
7496;DHT22;3789;47.064;15.482;2022-08-11T16:36:09;24.40;77.70
7496;DHT22;3789;47.064;15.482;2022-08-11T16:38:57;24.40;77.10
7496;DHT22;3789;47.064;15.482;2022-08-11T16:41:28;24.30;77.30
7496;DHT22;3789;47.064;15.482;2022-08-11T16:44:16;24.40;77.40
7496;DHT22;3789;47.064;15.482;2022-08-11T16:47:07;24.30;77.90
7496;DHT22;3789;47.064;15.482;2022-08-11T16:49:40;24.10;78.50
7496;DHT22;3789;47.064;15.482;2022-08-11T16:52:18;24.00;78.60
7496;DHT22;3789;47.064;15.482;2022-08-11T16:54:46;23.90;78.30
7496;DHT22;3789;47.064;15.482;2022-08-11T16:57:25;23.90;78.30
7496;DHT22;3789;47.064;15.482;2022-08-11T17:00:14;23.80;78.70
7496;DHT22;3789;47.064;15.482;2022-08-11T17:02:48;23.80;78.70
7496;DHT22;3789;47.064;15.482;2022-08-11T17:05:37;23.70;78.50
7496;DHT22;3789;47.064;15.482;2022-08-11T17:08:34;23.60;79.20
7496;DHT22;3789;47.064;15.482;2022-08-11T17:11:26;23.50;78.80
7496;DHT22;3789;47.064;15.482;2022-08-11T17:14:16;23.50;79.10
7496;DHT22;3789;47.064;15.482;2022-08-11T17:17:03;23.40;79.10
7496;DHT22;3789;47.064;15.482;2022-08-11T17:19:35;23.40;79.30
7496;DHT22;3789;47.064;15.482;2022-08-11T17:22:23;23.40;79.40
7496;DHT22;3789;47.064;15.482;2022-08-11T17:25:10;23.40;79.50
7496;DHT22;3789;47.064;15.482;2022-08-11T17:27:39;23.30;80.00
7496;DHT22;3789;47.064;15.482;2022-08-11T17:30:09;23.30;80.50
7496;DHT22;3789;47.064;15.482;2022-08-11T17:32:41;23.20;80.40
7496;DHT22;3789;47.064;15.482;2022-08-11T17:35:29;23.10;80.20
7496;DHT22;3789;47.064;15.482;2022-08-11T17:40:44;23.10;80.70
7496;DHT22;3789;47.064;15.482;2022-08-11T17:43:31;23.10;80.40
7496;DHT22;3789;47.064;15.482;2022-08-11T17:46:17;23.00;81.60
7496;DHT22;3789;47.064;15.482;2022-08-11T17:49:06;23.00;80.90
7496;DHT22;3789;47.064;15.482;2022-08-11T17:51:35;22.90;81.10
7496;DHT22;3789;47.064;15.482;2022-08-11T17:54:23;22.80;81.50
7496;DHT22;3789;47.064;15.482;2022-08-11T17:57:12;22.80;82.40
7496;DHT22;3789;47.064;15.482;2022-08-11T17:59:59;22.60;82.60
7496;DHT22;3789;47.064;15.482;2022-08-11T18:02:35;22.60;83.50
7496;DHT22;3789;47.064;15.482;2022-08-11T18:05:25;22.60;83.30
7496;DHT22;3789;47.064;15.482;2022-08-11T18:07:54;22.60;83.60
7496;DHT22;3789;47.064;15.482;2022-08-11T18:10:42;22.50;83.50
7496;DHT22;3789;47.064;15.482;2022-08-11T18:13:33;22.50;82.90
7496;DHT22;3789;47.064;15.482;2022-08-11T18:16:19;22.50;82.80
7496;DHT22;3789;47.064;15.482;2022-08-11T18:19:06;22.50;83.70
7496;DHT22;3789;47.064;15.482;2022-08-11T18:22:17;22.50;83.30
7496;DHT22;3789;47.064;15.482;2022-08-11T18:25:19;22.40;83.60
7496;DHT22;3789;47.064;15.482;2022-08-11T18:28:12;22.30;83.80
7496;DHT22;3789;47.064;15.482;2022-08-11T18:31:00;22.20;82.80
7496;DHT22;3789;47.064;15.482;2022-08-11T18:33:50;22.20;82.70
7496;DHT22;3789;47.064;15.482;2022-08-11T18:36:45;22.20;83.00
7496;DHT22;3789;47.064;15.482;2022-08-11T18:39:35;22.10;82.70
7496;DHT22;3789;47.064;15.482;2022-08-11T18:42:26;22.10;82.30
7496;DHT22;3789;47.064;15.482;2022-08-11T18:45:16;22.00;82.20
7496;DHT22;3789;47.064;15.482;2022-08-11T18:48:13;22.10;82.60
7496;DHT22;3789;47.064;15.482;2022-08-11T18:51:03;22.00;81.80
7496;DHT22;3789;47.064;15.482;2022-08-11T18:54:01;22.00;82.30
7496;DHT22;3789;47.064;15.482;2022-08-11T18:56:47;21.90;82.70
7496;DHT22;3789;47.064;15.482;2022-08-11T18:59:36;21.90;82.30
7496;DHT22;3789;47.064;15.482;2022-08-11T19:02:24;21.80;81.90
7496;DHT22;3789;47.064;15.482;2022-08-11T19:05:17;21.80;82.40
7496;DHT22;3789;47.064;15.482;2022-08-11T19:08:28;21.70;82.50
7496;DHT22;3789;47.064;15.482;2022-08-11T19:11:15;21.70;82.30
7496;DHT22;3789;47.064;15.482;2022-08-11T19:14:11;21.80;82.10
7496;DHT22;3789;47.064;15.482;2022-08-11T19:16:59;21.80;82.40
7496;DHT22;3789;47.064;15.482;2022-08-11T19:20:09;21.70;81.70
7496;DHT22;3789;47.064;15.482;2022-08-11T19:22:56;21.70;81.60
7496;DHT22;3789;47.064;15.482;2022-08-11T19:25:44;21.70;80.90
7496;DHT22;3789;47.064;15.482;2022-08-11T19:28:33;21.70;81.10
7496;DHT22;3789;47.064;15.482;2022-08-11T19:31:11;21.70;81.10
7496;DHT22;3789;47.064;15.482;2022-08-11T19:34:02;21.60;80.30
7496;DHT22;3789;47.064;15.482;2022-08-11T19:36:54;21.70;80.30
7496;DHT22;3789;47.064;15.482;2022-08-11T19:40:00;21.60;80.80
7496;DHT22;3789;47.064;15.482;2022-08-11T19:42:50;21.60;80.00
7496;DHT22;3789;47.064;15.482;2022-08-11T19:45:56;21.60;79.80
7496;DHT22;3789;47.064;15.482;2022-08-11T19:48:59;21.60;79.90
7496;DHT22;3789;47.064;15.482;2022-08-11T19:51:48;21.50;80.20
7496;DHT22;3789;47.064;15.482;2022-08-11T19:54:38;21.40;79.60
7496;DHT22;3789;47.064;15.482;2022-08-11T19:57:27;21.40;80.20
7496;DHT22;3789;47.064;15.482;2022-08-11T20:00:20;21.30;79.80
7496;DHT22;3789;47.064;15.482;2022-08-11T20:03:12;21.40;80.40
7496;DHT22;3789;47.064;15.482;2022-08-11T20:06:07;21.40;80.60
7496;DHT22;3789;47.064;15.482;2022-08-11T20:08:58;21.30;80.50
7496;DHT22;3789;47.064;15.482;2022-08-11T20:11:52;21.40;80.20
7496;DHT22;3789;47.064;15.482;2022-08-11T20:14:51;21.40;79.70
7496;DHT22;3789;47.064;15.482;2022-08-11T20:17:46;21.40;79.40
7496;DHT22;3789;47.064;15.482;2022-08-11T20:20:34;21.40;79.90
7496;DHT22;3789;47.064;15.482;2022-08-11T20:23:23;21.40;79.10
7496;DHT22;3789;47.064;15.482;2022-08-11T20:26:18;21.40;79.20
7496;DHT22;3789;47.064;15.482;2022-08-11T20:29:11;21.40;80.00
7496;DHT22;3789;47.064;15.482;2022-08-11T20:32:11;21.30;79.50
7496;DHT22;3789;47.064;15.482;2022-08-11T20:35:01;21.20;80.00
7496;DHT22;3789;47.064;15.482;2022-08-11T20:37:50;21.10;80.00
7496;DHT22;3789;47.064;15.482;2022-08-11T20:40:43;21.20;80.40
7496;DHT22;3789;47.064;15.482;2022-08-11T20:43:34;21.10;80.10
7496;DHT22;3789;47.064;15.482;2022-08-11T20:46:38;21.10;80.30
7496;DHT22;3789;47.064;15.482;2022-08-11T20:49:31;21.10;80.50
7496;DHT22;3789;47.064;15.482;2022-08-11T20:52:29;21.10;80.50
7496;DHT22;3789;47.064;15.482;2022-08-11T20:55:24;21.00;80.20
7496;DHT22;3789;47.064;15.482;2022-08-11T20:58:25;21.00;80.80
7496;DHT22;3789;47.064;15.482;2022-08-11T21:01:45;21.00;80.50
7496;DHT22;3789;47.064;15.482;2022-08-11T21:04:55;21.00;81.00
7496;DHT22;3789;47.064;15.482;2022-08-11T21:08:05;20.90;80.40
7496;DHT22;3789;47.064;15.482;2022-08-11T21:10:55;20.90;80.50
7496;DHT22;3789;47.064;15.482;2022-08-11T21:13:56;20.90;80.70
7496;DHT22;3789;47.064;15.482;2022-08-11T21:16:48;21.00;81.20
7496;DHT22;3789;47.064;15.482;2022-08-11T21:20:00;20.90;81.20